Terminal Aerodrome Forecast
Issued by NWS Twin Cities, MN

Home | Current Version | Previous Version | Text Only | Print | Product List | Glossary On
Versions: 1 2 3 4 5 6 7 8 9 10 11 12 13 14 15 16 17
164
FTUS43 KMPX 231120
TAFEAU
TAF
KEAU 231120Z 2312/2412 00000KT 1/2SM FG SCT002
     FM231300 VRB03KT P6SM SCT006 BKN035
     FM231500 17008KT P6SM BKN050
     FM240600 16004KT 4SM BR OVC100=

USA.gov is the U.S. government's official web portal to all federal, state and local government web resources and services.